메인 페이지
METAR-TAF:

METAR-TAF

공항 :

라과디아 공항

뉴욕 / 라가디아, 뉴욕, 미국

위도: 40-46-45N, 경도: 073-52-48W, 고도: 6m

현재 날씨관측

예보는 29분 전, 07:51시(UTC)에 발표되었습니다.
남서5kt
온도 23°C
습도 73%
기압 1020 hPa
시정: 16.1km
맑음

METAR: KLGA 200751Z 22005KT 10SM CLR 23/18 A3013 RMK AO2 SLP201 T02280178 $

시각: 04:20 (08:20 UTC)

예보

예보는 2 시간 48분 전, 05:32시(UTC)에 발표되었습니다.
예보 대상 시간: 20일 06시부터 21일 12시까지 (UTC)
남남서5kt
시정: 10km
맑음
20일 1500시부터 (UTC)
남동6kt
시정: 10km
맑음
20일 1900시부터 (UTC)
남남동11kt
시정: 10km
고도 25000ft 상공 구름 조금
21일 0000시부터 (UTC)
남남동7kt
시정: 10km
고도 25000ft 상공 구름 보통
21일 0700시부터 (UTC)
동남동6kt
시정: 10km
고도 25000ft 상공 구름 많음

TAF: KLGA 200532Z 2006/2112 20005KT P6SM SKC FM201500 13006KT P6SM SKC FM201900 16011KT P6SM FEW250 FM210000 16007KT P6SM SCT250 FM210700 11006KT P6SM BKN250

4,000개 이상의 공항 관측 자료 및 예보 (METAR 및 TAF 보고).

지도상에서 검색 가능한 기상관측소가 노란 점과 빨간 점으로 표시되어 있습니다.

기상관측소 명을 보려면 표시 위로 마우스를 이동하세요.

날씨 관측과 예보를 보려면 클릭하세요.

지도 변경 : 확대하려면 엑스 표시가 있는 녹색 버튼, 축소하려면 빼기 표시가 있는 녹색 버튼, 다음 페이지의 지도를 보려면 녹색 화살표를 클릭하세요.


METAR-TAF: